Reinholds, Pennsylvania
Current Conditions -  °F | °C
As of 4:54 PM on Monday 24 Nov 2014 (Local Time) from KRDG Reporting Station
Clear Clear  
Wind Chill: 66°   Ceiling: Unl
Heat Index: 66°   Visibility: 10mi
Dew Point: 53°   Wind: 13mph
Humidity: 63%   Direction: 180°S
Pressure: 29.6"   Gusts: 21mph
Location:  40.27°N, 76.12°W
Report Text: KRDG 242154Z 18011G18KT 10SM CLR 19/12 A2960 RMK AO2 SLP028 T01890117
Loading
Personal Weather Stations






























Interactive Weather Map New forecast layout! Learn more

10-Day Weather Forecast

Advertisements
Track Severe Weather on mobile